sim
Sign-in with your pilot id or email,
or register
Callsign
Passwort

Schedule Details

Flight Number: OEO1623
Departure: Shannon Airport (EINN) at 13:55
Arrival: Munich Airport (EDDM) at 16:25

Weather Information
Getting current METAR information for EINN 191100Z 07011KT 9999 FEW021 SCT200 15/10 Q1021 NOSIG
Getting current METAR information for EDDM 191050Z 05006KT 010V110 CAVOK 19/11 Q1019 NOSIG

Schedule Frequency

Route Map